Time;durP1;ratioP1;P1;durP2;ratioP2;P2;SDS_P1;SDS_P2;PMS_P1;PMS_P2;Temp;Humidity;BMP_temperature;BMP_pressure;BME280_temperature;BME280_humidity;BME280_pressure;Samples;Min_cycle;Max_cycle;Signal;HPM_P1;HPM_P2
2021/04/11 00:00:17;;;;;;;29.63;18.10;;;;;;;;;;4299985;33;20284;-55
2021/04/11 00:02:43;;;;;;;38.00;21.73;;;;;;;;;;4304785;33;20351;-55
2021/04/11 00:05:10;;;;;;;41.33;24.43;;;;;;;;;;4306755;33;20433;-56
2021/04/11 00:07:35;;;;;;;44.17;23.77;;;;;;;;;;4303687;33;20227;-55
2021/04/11 00:10:00;;;;;;;49.17;23.50;;;;;;;;;;4300034;33;20349;-55
2021/04/11 00:12:26;;;;;;;35.87;22.70;;;;;;;;;;4313217;33;20291;-56
2021/04/11 00:14:51;;;;;;;43.60;20.80;;;;;;;;;;4311905;33;20636;-55
2021/04/11 00:17:20;;;;;;;36.73;21.40;;;;;;;;;;4307785;33;20227;-55
2021/04/11 00:19:45;;;;;;;38.00;21.87;;;;;;;;;;4311571;33;20611;-55
2021/04/11 00:22:11;;;;;;;36.37;21.23;;;;;;;;;;4301713;33;20262;-56
2021/04/11 00:24:36;;;;;;;37.47;21.23;;;;;;;;;;4306149;33;20332;-57
2021/04/11 00:27:02;;;;;;;49.43;23.57;;;;;;;;;;4310020;33;20235;-55
2021/04/11 00:29:28;;;;;;;38.80;22.13;;;;;;;;;;4299585;33;20357;-57
2021/04/11 00:31:53;;;;;;;40.90;22.60;;;;;;;;;;4311355;33;20622;-56
2021/04/11 00:34:19;;;;;;;31.50;17.20;;;;;;;;;;4307667;33;20231;-57
2021/04/11 00:36:44;;;;;;;34.63;17.23;;;;;;;;;;4306167;33;20634;-56
2021/04/11 00:39:10;;;;;;;31.37;15.63;;;;;;;;;;4294486;33;20412;-56
2021/04/11 00:41:41;;;;;;;28.37;14.30;;;;;;;;;;4300245;33;20223;-57
2021/04/11 00:44:08;;;;;;;35.47;16.57;;;;;;;;;;4308256;33;20231;-56
2021/04/11 00:46:45;;;;;;;33.83;18.40;;;;;;;;;;4312123;33;20282;-57
2021/04/11 00:49:31;;;;;;;33.40;18.30;;;;;;;;;;4314866;33;20596;-56
2021/04/11 00:51:57;;;;;;;48.60;20.00;;;;;;;;;;4303620;33;20273;-56
2021/04/11 00:54:23;;;;;;;45.10;24.13;;;;;;;;;;4311209;33;20320;-55
2021/04/11 00:56:50;;;;;;;58.97;36.10;;;;;;;;;;4305941;33;20224;-54
2021/04/11 00:59:18;;;;;;;108.40;81.03;;;;;;;;;;4310704;33;20224;-55
2021/04/11 01:01:44;;;;;;;74.97;53.93;;;;;;;;;;4312434;33;20346;-54
2021/04/11 01:04:11;;;;;;;71.67;49.30;;;;;;;;;;4310049;33;20648;-55
2021/04/11 01:06:50;;;;;;;73.37;46.83;;;;;;;;;;4296221;33;20338;-55
2021/04/11 01:09:23;;;;;;;67.53;40.03;;;;;;;;;;4292648;33;20249;-54
2021/04/11 01:11:52;;;;;;;69.13;38.60;;;;;;;;;;4315285;33;20287;-55
2021/04/11 01:14:18;;;;;;;55.43;34.57;;;;;;;;;;4296895;33;20227;-54
2021/04/11 01:16:44;;;;;;;56.07;31.23;;;;;;;;;;4308574;33;20329;-54
2021/04/11 01:19:17;;;;;;;58.07;26.60;;;;;;;;;;4312731;33;20302;-55
2021/04/11 01:22:04;;;;;;;44.50;24.57;;;;;;;;;;4315461;33;20223;-54
2021/04/11 01:24:46;;;;;;;38.00;23.40;;;;;;;;;;4310437;33;20208;-54
2021/04/11 01:27:16;;;;;;;36.10;21.03;;;;;;;;;;4309603;33;20263;-54
2021/04/11 01:29:43;;;;;;;48.80;21.90;;;;;;;;;;4303804;33;20239;-54
2021/04/11 01:32:11;;;;;;;40.77;20.53;;;;;;;;;;4312540;33;20270;-55
2021/04/11 01:34:40;;;;;;;34.50;19.67;;;;;;;;;;4306573;33;20276;-54
2021/04/11 01:37:07;;;;;;;44.30;23.00;;;;;;;;;;4306447;33;20770;-55
2021/04/11 01:39:37;;;;;;;40.10;22.13;;;;;;;;;;4314734;33;20223;-56
2021/04/11 01:42:04;;;;;;;45.17;22.93;;;;;;;;;;4312271;33;20269;-55
2021/04/11 01:44:33;;;;;;;44.43;22.40;;;;;;;;;;4310937;33;20207;-56
2021/04/11 01:46:59;;;;;;;52.20;24.27;;;;;;;;;;4300500;33;20223;-55
2021/04/11 01:49:26;;;;;;;44.27;23.13;;;;;;;;;;4313776;33;20317;-57
2021/04/11 01:52:13;;;;;;;56.50;29.53;;;;;;;;;;4302018;33;20300;-56
2021/04/11 01:54:39;;;;;;;68.70;31.37;;;;;;;;;;4313737;33;20225;-57
2021/04/11 01:57:15;;;;;;;61.50;31.67;;;;;;;;;;4310431;33;20346;-57
2021/04/11 01:59:40;;;;;;;73.20;34.27;;;;;;;;;;4312818;33;20598;-58
2021/04/11 02:02:07;;;;;;;69.00;32.47;;;;;;;;;;4311148;33;20320;-57
2021/04/11 02:04:33;;;;;;;59.90;27.63;;;;;;;;;;4310949;33;20273;-57
2021/04/11 02:07:03;;;;;;;45.17;21.60;;;;;;;;;;4314015;33;20711;-57
2021/04/11 02:09:31;;;;;;;42.33;22.80;;;;;;;;;;4314010;33;20653;-57
2021/04/11 02:11:59;;;;;;;48.77;24.60;;;;;;;;;;4302614;33;20732;-57
2021/04/11 02:14:24;;;;;;;55.37;24.00;;;;;;;;;;4313839;33;20345;-57
2021/04/11 02:16:50;;;;;;;43.30;20.80;;;;;;;;;;4314359;33;20227;-57
2021/04/11 02:19:20;;;;;;;52.20;22.47;;;;;;;;;;4313489;33;20316;-56
2021/04/11 02:21:58;;;;;;;44.43;19.97;;;;;;;;;;4302626;33;20338;-56
2021/04/11 02:24:25;;;;;;;46.23;23.97;;;;;;;;;;4296455;33;20656;-57
2021/04/11 02:26:50;;;;;;;44.63;24.00;;;;;;;;;;4305788;33;20294;-57
2021/04/11 02:29:24;;;;;;;39.97;21.40;;;;;;;;;;4303258;33;20302;-57
2021/04/11 02:31:50;;;;;;;30.73;19.27;;;;;;;;;;4311245;33;20310;-57
2021/04/11 02:34:25;;;;;;;32.87;19.63;;;;;;;;;;4307570;33;20246;-56
2021/04/11 02:36:56;;;;;;;41.80;20.37;;;;;;;;;;4314304;33;20223;-56
2021/04/11 02:39:25;;;;;;;42.63;20.87;;;;;;;;;;4290952;33;20231;-56
2021/04/11 02:41:53;;;;;;;39.03;20.83;;;;;;;;;;4313011;33;20418;-56
2021/04/11 02:44:19;;;;;;;38.70;19.97;;;;;;;;;;4309204;33;20280;-56
2021/04/11 02:46:46;;;;;;;39.73;19.37;;;;;;;;;;4308110;33;20284;-56
2021/04/11 02:49:14;;;;;;;42.07;19.27;;;;;;;;;;4295677;33;20289;-55
2021/04/11 02:51:41;;;;;;;50.33;21.10;;;;;;;;;;4297633;33;20228;-56
2021/04/11 02:54:11;;;;;;;53.27;23.17;;;;;;;;;;4311805;33;20247;-56
2021/04/11 02:56:41;;;;;;;56.63;23.47;;;;;;;;;;4313749;33;20208;-55
2021/04/11 02:59:07;;;;;;;47.13;24.30;;;;;;;;;;4307967;33;20655;-55
2021/04/11 03:01:42;;;;;;;34.73;16.43;;;;;;;;;;4307793;33;20207;-55
2021/04/11 03:04:13;;;;;;;40.57;18.17;;;;;;;;;;4304942;33;20350;-56
2021/04/11 03:06:42;;;;;;;34.37;16.00;;;;;;;;;;4305381;33;20227;-55
2021/04/11 03:09:19;;;;;;;38.17;18.87;;;;;;;;;;4312428;33;20309;-55
2021/04/11 03:11:51;;;;;;;35.97;19.10;;;;;;;;;;4313401;33;20373;-56
2021/04/11 03:14:21;;;;;;;34.17;19.13;;;;;;;;;;4303319;33;20228;-55
2021/04/11 03:16:47;;;;;;;31.53;18.93;;;;;;;;;;4292557;33;20396;-57
2021/04/11 03:19:23;;;;;;;39.77;21.07;;;;;;;;;;4312046;33;20255;-55
2021/04/11 03:21:49;;;;;;;40.83;22.07;;;;;;;;;;4312321;33;20227;-55
2021/04/11 03:24:15;;;;;;;37.30;21.47;;;;;;;;;;4304225;33;20822;-56
2021/04/11 03:26:40;;;;;;;39.90;23.73;;;;;;;;;;4305213;33;20660;-55
2021/04/11 03:29:40;;;;;;;45.37;23.70;;;;;;;;;;4311232;33;20290;-55
2021/04/11 03:32:11;;;;;;;52.60;29.00;;;;;;;;;;4300054;33;20934;-56
2021/04/11 03:34:39;;;;;;;58.37;29.17;;;;;;;;;;4306457;33;20699;-55
2021/04/11 03:37:08;;;;;;;48.53;27.83;;;;;;;;;;4307342;33;20223;-56
2021/04/11 03:39:35;;;;;;;43.40;24.23;;;;;;;;;;4299874;33;20327;-55
2021/04/11 03:42:08;;;;;;;39.97;20.97;;;;;;;;;;4299872;33;20618;-55
2021/04/11 03:44:35;;;;;;;35.50;20.83;;;;;;;;;;4309243;33;20722;-56
2021/04/11 03:47:11;;;;;;;46.50;21.57;;;;;;;;;;4306876;33;20253;-56
2021/04/11 03:50:03;;;;;;;44.50;20.83;;;;;;;;;;4312934;33;20372;-55
2021/04/11 03:52:39;;;;;;;45.13;21.90;;;;;;;;;;4310736;33;20231;-55
2021/04/11 03:55:10;;;;;;;48.20;26.43;;;;;;;;;;4307884;33;20214;-56
2021/04/11 03:57:51;;;;;;;47.67;28.30;;;;;;;;;;4302668;33;20583;-56
2021/04/11 04:00:25;;;;;;;45.00;25.83;;;;;;;;;;4296467;33;20235;-57
2021/04/11 04:02:55;;;;;;;44.83;26.67;;;;;;;;;;4291958;33;20305;-56
2021/04/11 04:05:24;;;;;;;45.53;28.77;;;;;;;;;;4303216;33;20291;-56
2021/04/11 04:07:50;;;;;;;44.70;27.77;;;;;;;;;;4309309;33;20277;-55
2021/04/11 04:10:19;;;;;;;51.73;29.00;;;;;;;;;;4301057;33;20341;-55
2021/04/11 04:13:12;;;;;;;53.07;28.63;;;;;;;;;;4312748;33;20377;-56
2021/04/11 04:16:08;;;;;;;44.83;25.63;;;;;;;;;;4310315;33;20765;-58
2021/04/11 04:18:43;;;;;;;53.03;28.70;;;;;;;;;;4299411;33;20314;-58
2021/04/11 04:21:17;;;;;;;63.50;35.30;;;;;;;;;;4304464;33;20266;-58
2021/04/11 04:24:21;;;;;;;73.57;41.30;;;;;;;;;;4306442;33;20283;-56
2021/04/11 04:26:47;;;;;;;92.50;54.30;;;;;;;;;;4312012;33;20371;-57
2021/04/11 04:29:21;;;;;;;73.93;42.80;;;;;;;;;;4305363;33;20330;-57
2021/04/11 04:32:10;;;;;;;73.30;40.33;;;;;;;;;;4312165;33;20333;-57
2021/04/11 04:34:47;;;;;;;67.33;40.27;;;;;;;;;;4303982;33;20267;-56
2021/04/11 04:37:48;;;;;;;74.87;40.33;;;;;;;;;;4312455;33;20255;-56
2021/04/11 04:40:38;;;;;;;56.73;31.60;;;;;;;;;;4272728;33;20294;-56
2021/04/11 04:43:26;;;;;;;52.53;30.33;;;;;;;;;;4303096;33;20232;-56
2021/04/11 04:46:17;;;;;;;74.87;40.53;;;;;;;;;;4312164;33;20322;-55
2021/04/11 04:48:53;;;;;;;60.17;37.37;;;;;;;;;;4312149;33;20227;-56
2021/04/11 04:51:48;;;;;;;64.10;41.97;;;;;;;;;;4312110;33;20597;-56
2021/04/11 04:54:27;;;;;;;78.83;42.30;;;;;;;;;;4287190;33;20212;-58
2021/04/11 04:57:04;;;;;;;56.37;32.87;;;;;;;;;;4310667;33;20265;-57
2021/04/11 04:59:40;;;;;;;46.53;23.57;;;;;;;;;;4309260;33;20257;-58
2021/04/11 05:02:15;;;;;;;42.57;23.40;;;;;;;;;;4301313;33;20298;-58
2021/04/11 05:04:47;;;;;;;50.30;23.77;;;;;;;;;;4307307;33;20286;-57
2021/04/11 05:07:18;;;;;;;38.83;23.03;;;;;;;;;;4312544;33;20235;-58
2021/04/11 05:09:48;;;;;;;42.83;22.63;;;;;;;;;;4299067;33;20261;-54
2021/04/11 05:12:46;;;;;;;40.13;22.53;;;;;;;;;;4300575;33;20783;-54
2021/04/11 05:15:26;;;;;;;42.50;24.47;;;;;;;;;;4284317;33;20765;-53
2021/04/11 05:17:56;;;;;;;35.50;19.73;;;;;;;;;;4308920;33;20294;-54
2021/04/11 05:20:29;;;;;;;28.97;15.87;;;;;;;;;;4302719;33;20692;-54
2021/04/11 05:23:00;;;;;;;30.30;15.30;;;;;;;;;;4305409;33;20728;-56
2021/04/11 05:25:38;;;;;;;24.07;14.07;;;;;;;;;;4304749;33;20381;-56
2021/04/11 05:28:31;;;;;;;23.80;15.37;;;;;;;;;;4305942;33;20247;-57
2021/04/11 05:31:06;;;;;;;25.20;12.60;;;;;;;;;;4305867;33;20243;-56
2021/04/11 05:33:35;;;;;;;20.20;12.33;;;;;;;;;;4309690;33;20567;-57
2021/04/11 05:36:46;;;;;;;27.77;15.17;;;;;;;;;;4301826;33;20216;-56
2021/04/11 05:39:34;;;;;;;28.67;15.60;;;;;;;;;;4309226;33;20224;-57
2021/04/11 05:42:21;;;;;;;25.00;13.70;;;;;;;;;;4313145;33;20632;-57
2021/04/11 05:44:58;;;;;;;21.63;13.23;;;;;;;;;;4312547;33;20207;-57
2021/04/11 05:47:39;;;;;;;32.93;14.50;;;;;;;;;;4315255;33;20310;-58
2021/04/11 05:50:10;;;;;;;28.67;16.13;;;;;;;;;;4314113;33;20215;-57
2021/04/11 05:52:42;;;;;;;35.07;17.17;;;;;;;;;;4314988;33;20227;-54
2021/04/11 05:55:11;;;;;;;32.13;18.20;;;;;;;;;;4309294;33;20291;-53
2021/04/11 05:57:51;;;;;;;32.73;17.67;;;;;;;;;;4309326;33;20290;-53
2021/04/11 06:00:22;;;;;;;39.27;21.87;;;;;;;;;;4314659;33;20211;-54
2021/04/11 06:02:56;;;;;;;32.83;22.03;;;;;;;;;;4307352;33;20672;-54
2021/04/11 06:05:21;;;;;;;38.67;22.53;;;;;;;;;;4304328;33;20258;-53
2021/04/11 06:07:54;;;;;;;38.83;22.43;;;;;;;;;;4311466;33;20247;-53
2021/04/11 06:10:35;;;;;;;32.13;20.40;;;;;;;;;;4314237;33;20262;-55
2021/04/11 06:13:22;;;;;;;35.97;21.80;;;;;;;;;;4314363;33;20222;-54
2021/04/11 06:16:00;;;;;;;37.53;21.70;;;;;;;;;;4312940;33;20247;-53
2021/04/11 06:18:26;;;;;;;32.17;17.47;;;;;;;;;;4310339;33;20211;-53
2021/04/11 06:20:53;;;;;;;33.13;18.43;;;;;;;;;;4314003;33;20700;-54
2021/04/11 06:23:35;;;;;;;40.07;20.23;;;;;;;;;;4313587;33;20227;-54
2021/04/11 06:26:10;;;;;;;48.77;19.30;;;;;;;;;;4302438;33;20382;-54
2021/04/11 06:28:47;;;;;;;35.03;19.63;;;;;;;;;;4308682;33;20227;-53
2021/04/11 06:31:38;;;;;;;38.57;20.50;;;;;;;;;;4305678;33;20705;-54
2021/04/11 06:34:31;;;;;;;34.50;19.87;;;;;;;;;;4308603;33;20239;-53
2021/04/11 06:37:02;;;;;;;30.90;16.90;;;;;;;;;;4306365;33;20962;-53
2021/04/11 06:39:32;;;;;;;30.63;15.53;;;;;;;;;;4309278;33;20219;-54
2021/04/11 06:42:19;;;;;;;22.57;13.83;;;;;;;;;;4314080;33;20219;-55
2021/04/11 06:44:51;;;;;;;23.03;13.27;;;;;;;;;;4309612;33;20407;-55
2021/04/11 06:48:01;;;;;;;23.77;12.20;;;;;;;;;;4309687;33;20247;-55
2021/04/11 06:50:58;;;;;;;26.33;13.03;;;;;;;;;;4297031;33;20240;-56
2021/04/11 06:54:01;;;;;;;20.17;11.13;;;;;;;;;;4305867;33;20283;-56
2021/04/11 06:56:55;;;;;;;24.57;10.07;;;;;;;;;;4296763;33;20227;-57
2021/04/11 06:59:23;;;;;;;23.97;10.33;;;;;;;;;;4304168;33;20290;-55
2021/04/11 07:02:07;;;;;;;14.13;8.73;;;;;;;;;;4306865;33;20810;-57
2021/04/11 07:04:57;;;;;;;20.30;11.80;;;;;;;;;;4305156;33;20786;-60
2021/04/11 07:07:37;;;;;;;23.03;9.83;;;;;;;;;;4296546;33;20247;-59
2021/04/11 07:10:51;;;;;;;16.43;8.60;;;;;;;;;;4297700;33;20266;-61
2021/04/11 07:13:28;;;;;;;13.67;7.60;;;;;;;;;;4296568;33;20302;-59
2021/04/11 07:15:57;;;;;;;18.00;8.77;;;;;;;;;;4297624;33;20681;-59
2021/04/11 07:18:57;;;;;;;17.60;7.97;;;;;;;;;;4297011;33;20250;-59
2021/04/11 07:22:04;;;;;;;24.97;8.47;;;;;;;;;;4306140;33;20287;-59
2021/04/11 07:25:04;;;;;;;12.10;8.00;;;;;;;;;;4304581;33;20289;-54
2021/04/11 07:28:08;;;;;;;17.70;7.17;;;;;;;;;;4297120;33;20263;-57
2021/04/11 07:30:40;;;;;;;15.53;8.13;;;;;;;;;;4303219;33;20298;-57
2021/04/11 07:33:35;;;;;;;15.90;7.73;;;;;;;;;;4305710;33;20796;-57
2021/04/11 07:36:12;;;;;;;13.10;7.43;;;;;;;;;;4295927;33;20209;-57
2021/04/11 07:38:58;;;;;;;19.30;7.03;;;;;;;;;;4289718;33;20624;-57
2021/04/11 07:42:09;;;;;;;12.23;5.87;;;;;;;;;;4288607;33;20212;-58
2021/04/11 07:44:57;;;;;;;18.30;7.20;;;;;;;;;;4294430;33;20262;-57
2021/04/11 07:47:59;;;;;;;10.90;6.47;;;;;;;;;;4309296;33;20294;-58
2021/04/11 07:50:27;;;;;;;10.77;6.60;;;;;;;;;;4298584;33;20220;-57
2021/04/11 07:53:11;;;;;;;16.43;7.40;;;;;;;;;;4290964;33;20287;-56
2021/04/11 07:55:49;;;;;;;18.30;10.00;;;;;;;;;;4295884;33;20421;-57
2021/04/11 07:58:33;;;;;;;14.47;8.07;;;;;;;;;;4293725;33;20294;-58
2021/04/11 08:01:16;;;;;;;13.70;7.10;;;;;;;;;;4290437;33;20251;-57
2021/04/11 08:04:12;;;;;;;156.40;76.70;;;;;;;;;;4294618;33;20235;-58
2021/04/11 08:06:40;;;;;;;42.63;21.93;;;;;;;;;;4298297;33;20227;-57
2021/04/11 08:09:32;;;;;;;29.67;18.97;;;;;;;;;;4299295;33;20238;-58
2021/04/11 08:12:22;;;;;;;28.43;11.80;;;;;;;;;;4271837;33;20658;-58
2021/04/11 08:14:59;;;;;;;22.87;14.23;;;;;;;;;;4303099;33;20245;-59
2021/04/11 08:17:47;;;;;;;39.43;24.67;;;;;;;;;;4306928;33;20326;-58
2021/04/11 08:20:42;;;;;;;14.17;8.50;;;;;;;;;;4306562;33;20298;-58
2021/04/11 08:23:16;;;;;;;19.83;8.50;;;;;;;;;;4267743;33;20232;-59
2021/04/11 08:26:26;;;;;;;40.50;23.93;;;;;;;;;;4309396;33;20253;-58
2021/04/11 08:28:57;;;;;;;12.27;7.30;;;;;;;;;;4297986;33;20235;-57
2021/04/11 08:31:55;;;;;;;13.80;10.50;;;;;;;;;;4306094;33;20204;-58
2021/04/11 08:34:32;;;;;;;12.90;6.40;;;;;;;;;;4305084;33;20571;-57
2021/04/11 08:37:42;;;;;;;14.60;7.20;;;;;;;;;;4304924;33;20258;-58
2021/04/11 08:40:32;;;;;;;15.20;7.30;;;;;;;;;;4298905;33;20358;-57
2021/04/11 08:43:21;;;;;;;12.13;7.17;;;;;;;;;;4305921;33;20266;-59
2021/04/11 08:45:50;;;;;;;14.40;8.10;;;;;;;;;;4299667;33;20752;-57
2021/04/11 08:48:33;;;;;;;17.33;7.77;;;;;;;;;;4309642;33;20554;-58
2021/04/11 08:51:10;;;;;;;30.40;18.43;;;;;;;;;;4305705;33;20235;-59
2021/04/11 08:54:05;;;;;;;11.93;7.80;;;;;;;;;;4297241;33;20569;-59
2021/04/11 08:56:39;;;;;;;12.00;6.27;;;;;;;;;;4278258;33;20263;-58
2021/04/11 08:59:11;;;;;;;11.00;6.40;;;;;;;;;;4306672;33;20290;-59
2021/04/11 09:02:15;;;;;;;35.70;13.37;;;;;;;;;;4308516;33;20589;-60
2021/04/11 09:04:53;;;;;;;11.70;6.83;;;;;;;;;;4304758;33;20649;-59
2021/04/11 09:07:31;;;;;;;19.97;10.10;;;;;;;;;;4297971;33;20278;-60
2021/04/11 09:10:05;;;;;;;21.90;8.17;;;;;;;;;;4295238;33;20295;-59
2021/04/11 09:12:52;;;;;;;11.20;6.10;;;;;;;;;;4300044;33;20531;-57
2021/04/11 09:15:25;;;;;;;15.10;7.27;;;;;;;;;;4291281;33;20765;-56
2021/04/11 09:18:00;;;;;;;10.33;5.80;;;;;;;;;;4295500;33;20228;-54
2021/04/11 09:20:38;;;;;;;13.93;4.80;;;;;;;;;;4300416;33;20396;-56
2021/04/11 09:23:18;;;;;;;11.03;6.23;;;;;;;;;;4306528;33;20244;-56
2021/04/11 09:26:03;;;;;;;30.07;11.70;;;;;;;;;;4296273;33;20916;-56
2021/04/11 09:28:46;;;;;;;9.30;5.80;;;;;;;;;;4286551;33;20386;-56
2021/04/11 09:31:31;;;;;;;14.30;6.63;;;;;;;;;;4298718;33;20238;-56
2021/04/11 09:34:18;;;;;;;18.87;8.33;;;;;;;;;;4296462;33;20241;-56
2021/04/11 09:36:46;;;;;;;11.63;7.17;;;;;;;;;;4301534;33;20247;-56
2021/04/11 09:39:43;;;;;;;17.70;6.60;;;;;;;;;;4290950;33;20795;-56
2021/04/11 09:42:30;;;;;;;14.77;6.40;;;;;;;;;;4298506;33;20294;-58
2021/04/11 09:44:58;;;;;;;19.57;8.63;;;;;;;;;;4299524;33;20211;-57
2021/04/11 09:47:33;;;;;;;18.07;7.97;;;;;;;;;;4309185;33;20236;-57
2021/04/11 09:50:05;;;;;;;11.37;5.23;;;;;;;;;;4310131;33;20279;-59
2021/04/11 09:52:52;;;;;;;11.13;5.37;;;;;;;;;;4295847;33;20270;-59
2021/04/11 09:55:37;;;;;;;13.50;9.10;;;;;;;;;;4295712;33;20254;-57
2021/04/11 09:58:36;;;;;;;22.93;9.00;;;;;;;;;;4292659;33;20294;-57
2021/04/11 10:01:16;;;;;;;15.27;5.00;;;;;;;;;;4285825;33;20230;-57
2021/04/11 10:03:58;;;;;;;54.67;23.83;;;;;;;;;;4307979;33;20255;-58
2021/04/11 10:07:01;;;;;;;12.83;6.47;;;;;;;;;;4294678;33;20227;-57
2021/04/11 10:10:07;;;;;;;6.87;5.40;;;;;;;;;;4304213;33;20200;-57
2021/04/11 10:12:38;;;;;;;9.33;5.67;;;;;;;;;;4305763;33;20309;-57
2021/04/11 10:15:04;;;;;;;15.80;7.00;;;;;;;;;;4308675;33;20207;-57
2021/04/11 10:17:38;;;;;;;22.07;7.77;;;;;;;;;;4311973;33;20235;-57
2021/04/11 10:20:18;;;;;;;13.57;6.07;;;;;;;;;;4300934;33;20234;-57
2021/04/11 10:22:59;;;;;;;55.97;24.03;;;;;;;;;;4314267;33;20366;-57
2021/04/11 10:25:41;;;;;;;11.60;4.73;;;;;;;;;;4296629;33;20325;-57
2021/04/11 10:28:15;;;;;;;8.67;4.80;;;;;;;;;;4310364;33;20330;-57
2021/04/11 10:30:43;;;;;;;17.97;8.97;;;;;;;;;;4290429;33;20654;-55
2021/04/11 10:33:33;;;;;;;13.33;5.07;;;;;;;;;;4308101;33;20268;-57
2021/04/11 10:36:14;;;;;;;17.50;5.97;;;;;;;;;;4310917;33;20261;-56
2021/04/11 10:39:04;;;;;;;16.70;5.20;;;;;;;;;;4305679;33;20245;-57
2021/04/11 10:41:55;;;;;;;12.13;4.70;;;;;;;;;;4305085;33;20267;-57
2021/04/11 10:45:02;;;;;;;10.60;4.87;;;;;;;;;;4297056;33;20235;-59
2021/04/11 10:47:40;;;;;;;8.93;4.47;;;;;;;;;;4281773;33;20231;-59
2021/04/11 10:50:21;;;;;;;19.83;9.90;;;;;;;;;;4300036;33;20281;-59
2021/04/11 10:52:50;;;;;;;8.87;3.73;;;;;;;;;;4308972;33;20231;-60
2021/04/11 10:55:25;;;;;;;10.13;4.27;;;;;;;;;;4304062;33;20811;-58
2021/04/11 10:58:19;;;;;;;15.50;6.30;;;;;;;;;;4310994;33;20250;-59
2021/04/11 11:01:10;;;;;;;67.50;49.57;;;;;;;;;;4308931;33;20228;-57
2021/04/11 11:04:04;;;;;;;13.87;7.23;;;;;;;;;;4309822;33;20314;-58
2021/04/11 11:06:48;;;;;;;23.30;6.20;;;;;;;;;;4303728;33;20246;-57
2021/04/11 11:09:13;;;;;;;11.02;4.93;;;;;;;;;;4312776;33;20683;-59
2021/04/11 11:12:00;;;;;;;15.80;10.05;;;;;;;;;;4312962;33;20239;-59
2021/04/11 11:14:44;;;;;;;7.10;3.67;;;;;;;;;;4299884;33;20228;-57
2021/04/11 11:17:23;;;;;;;5.78;3.85;;;;;;;;;;4306960;33;20242;-58
2021/04/11 11:20:14;;;;;;;8.60;3.55;;;;;;;;;;4311061;33;20241;-58
2021/04/11 11:22:55;;;;;;;4.10;2.97;;;;;;;;;;4310442;33;20231;-57
2021/04/11 11:25:56;;;;;;;7.62;4.07;;;;;;;;;;4303854;33;20216;-58
2021/04/11 11:29:13;;;;;;;5.68;3.60;;;;;;;;;;4307979;33;20599;-58
2021/04/11 11:31:54;;;;;;;10.15;3.03;;;;;;;;;;4279432;33;20282;-57
2021/04/11 11:34:25;;;;;;;25.23;8.60;;;;;;;;;;4306337;33;20589;-57
2021/04/11 11:37:04;;;;;;;14.90;5.68;;;;;;;;;;4310408;33;20224;-57
2021/04/11 11:39:59;;;;;;;7.85;4.18;;;;;;;;;;4310191;33;20282;-57
2021/04/11 11:42:40;;;;;;;10.93;4.32;;;;;;;;;;4304277;33;20429;-56
2021/04/11 11:45:27;;;;;;;7.18;2.92;;;;;;;;;;4312652;33;20219;-57
2021/04/11 11:48:04;;;;;;;9.88;3.35;;;;;;;;;;4311022;33;20769;-56
2021/04/11 11:50:35;;;;;;;4.87;3.12;;;;;;;;;;4308649;33;20211;-58
2021/04/11 11:53:05;;;;;;;5.43;2.83;;;;;;;;;;4313014;33;20238;-57
2021/04/11 11:55:36;;;;;;;7.25;2.58;;;;;;;;;;4307282;33;20216;-58
2021/04/11 11:58:36;;;;;;;8.95;3.65;;;;;;;;;;4310274;33;20232;-58
2021/04/11 12:01:23;;;;;;;12.02;5.18;;;;;;;;;;4306923;33;20269;-57
2021/04/11 12:03:49;;;;;;;14.48;5.55;;;;;;;;;;4300743;33;20303;-57
2021/04/11 12:06:24;;;;;;;15.02;4.28;;;;;;;;;;4296796;33;20275;-58
2021/04/11 12:09:19;;;;;;;8.35;2.80;;;;;;;;;;4290638;33;20216;-57
2021/04/11 12:12:21;;;;;;;6.20;3.70;;;;;;;;;;4296117;33;20657;-56
2021/04/11 12:15:07;;;;;;;9.52;2.92;;;;;;;;;;4290240;33;20262;-57
2021/04/11 12:17:54;;;;;;;8.18;3.35;;;;;;;;;;4303062;33;20259;-58
2021/04/11 12:20:46;;;;;;;12.43;4.37;;;;;;;;;;4294806;33;20234;-56
2021/04/11 12:23:31;;;;;;;14.48;3.35;;;;;;;;;;4294733;33;20609;-56
2021/04/11 12:26:14;;;;;;;6.78;3.75;;;;;;;;;;4296181;33;20269;-59
2021/04/11 12:28:42;;;;;;;6.57;4.53;;;;;;;;;;4289536;33;20303;-58
2021/04/11 12:31:31;;;;;;;13.62;3.58;;;;;;;;;;4290143;33;20586;-57
2021/04/11 12:34:12;;;;;;;9.77;3.65;;;;;;;;;;4297075;33;20257;-58
2021/04/11 12:36:49;;;;;;;7.87;4.90;;;;;;;;;;4305193;33;20587;-55
2021/04/11 12:39:27;;;;;;;8.93;4.37;;;;;;;;;;4280457;33;20318;-54
2021/04/11 12:41:58;;;;;;;7.65;3.97;;;;;;;;;;4294865;33;20675;-54
2021/04/11 12:44:30;;;;;;;14.52;4.68;;;;;;;;;;4288220;33;20212;-53
2021/04/11 12:47:26;;;;;;;8.73;4.75;;;;;;;;;;4291830;33;20223;-57
2021/04/11 12:50:01;;;;;;;5.57;3.65;;;;;;;;;;4304333;33;20365;-54
2021/04/11 12:52:34;;;;;;;6.65;3.65;;;;;;;;;;4290322;33;20579;-55
2021/04/11 12:55:25;;;;;;;6.57;3.05;;;;;;;;;;4289694;33;20258;-54
2021/04/11 12:57:59;;;;;;;8.20;3.28;;;;;;;;;;4291553;33;20265;-54
2021/04/11 13:00:30;;;;;;;14.98;5.03;;;;;;;;;;4291183;33;20329;-54
2021/04/11 13:03:01;;;;;;;14.52;8.82;;;;;;;;;;4298304;33;20232;-55
2021/04/11 13:05:42;;;;;;;10.82;7.93;;;;;;;;;;4297172;33;20301;-54
2021/04/11 13:08:49;;;;;;;10.07;3.75;;;;;;;;;;4313650;33;20269;-57
2021/04/11 13:11:23;;;;;;;9.45;4.72;;;;;;;;;;4265464;33;20300;-56
2021/04/11 13:14:18;;;;;;;12.10;7.80;;;;;;;;;;4312702;33;20253;-56
2021/04/11 13:17:03;;;;;;;10.07;4.12;;;;;;;;;;4307326;33;20200;-55
2021/04/11 13:19:33;;;;;;;7.07;3.55;;;;;;;;;;4304802;33;20230;-55
2021/04/11 13:22:03;;;;;;;15.27;6.28;;;;;;;;;;4301031;33;20713;-57
2021/04/11 13:25:10;;;;;;;13.50;4.55;;;;;;;;;;4313349;33;20204;-57
2021/04/11 13:27:40;;;;;;;18.33;3.60;;;;;;;;;;4303383;33;20228;-56
2021/04/11 13:30:10;;;;;;;5.87;3.15;;;;;;;;;;4299306;33;20285;-57
2021/04/11 13:33:03;;;;;;;7.90;3.55;;;;;;;;;;4291628;33;20243;-58
2021/04/11 13:35:44;;;;;;;16.23;6.78;;;;;;;;;;4315743;33;20203;-57
2021/04/11 13:38:19;;;;;;;10.90;3.72;;;;;;;;;;4303472;33;20315;-57
2021/04/11 13:40:46;;;;;;;9.05;3.60;;;;;;;;;;4309253;33;20309;-57
2021/04/11 13:43:29;;;;;;;8.38;3.83;;;;;;;;;;4313453;33;20381;-57
2021/04/11 13:46:17;;;;;;;10.82;5.43;;;;;;;;;;4313313;33;20267;-57
2021/04/11 13:48:56;;;;;;;9.60;4.00;;;;;;;;;;4310883;33;20223;-58
2021/04/11 13:51:40;;;;;;;8.55;3.28;;;;;;;;;;4315290;33;20649;-57
2021/04/11 13:54:21;;;;;;;10.63;5.18;;;;;;;;;;4311965;33;20691;-56
2021/04/11 13:57:08;;;;;;;5.50;3.53;;;;;;;;;;4313444;33;20345;-58
2021/04/11 14:00:01;;;;;;;13.70;3.12;;;;;;;;;;4301978;33;20607;-57
2021/04/11 14:02:29;;;;;;;8.45;3.22;;;;;;;;;;4311906;33;20302;-58
2021/04/11 14:05:27;;;;;;;9.98;3.03;;;;;;;;;;4314981;33;20338;-56
2021/04/11 14:08:12;;;;;;;7.62;3.75;;;;;;;;;;4313909;33;20570;-55
2021/04/11 14:10:43;;;;;;;8.45;3.60;;;;;;;;;;4304983;33;20735;-55
2021/04/11 14:13:27;;;;;;;13.40;3.15;;;;;;;;;;4313473;33;20441;-54
2021/04/11 14:16:03;;;;;;;9.25;3.42;;;;;;;;;;4312059;33;20274;-55
2021/04/11 14:18:46;;;;;;;9.70;3.60;;;;;;;;;;4309795;33;20262;-56
2021/04/11 14:21:23;;;;;;;6.78;3.53;;;;;;;;;;4310679;33;20236;-55
2021/04/11 14:24:05;;;;;;;6.25;3.25;;;;;;;;;;4289792;33;20630;-55
2021/04/11 14:27:03;;;;;;;11.80;3.47;;;;;;;;;;4313657;33;20275;-55
2021/04/11 14:29:40;;;;;;;6.53;2.90;;;;;;;;;;4284980;33;20363;-54
2021/04/11 14:32:11;;;;;;;7.43;3.75;;;;;;;;;;4310250;33;20298;-57
2021/04/11 14:34:51;;;;;;;7.25;3.08;;;;;;;;;;4305574;33;20639;-55
2021/04/11 14:37:52;;;;;;;8.63;3.30;;;;;;;;;;4311955;33;20220;-55
2021/04/11 14:40:19;;;;;;;7.97;3.53;;;;;;;;;;4313255;33;20320;-54
2021/04/11 14:42:59;;;;;;;14.27;3.75;;;;;;;;;;4306770;33;20361;-54
2021/04/11 14:45:24;;;;;;;7.32;3.92;;;;;;;;;;4314389;33;20309;-55
2021/04/11 14:48:06;;;;;;;7.97;3.90;;;;;;;;;;4311100;33;20256;-56
2021/04/11 14:50:38;;;;;;;15.98;6.20;;;;;;;;;;4311094;33;20235;-55
2021/04/11 14:53:51;;;;;;;12.02;3.72;;;;;;;;;;4307660;33;20266;-54
2021/04/11 14:56:22;;;;;;;21.87;5.10;;;;;;;;;;4244246;33;20639;-54
2021/04/11 14:58:54;;;;;;;6.55;3.92;;;;;;;;;;4306982;33;20584;-56
2021/04/11 15:01:25;;;;;;;8.77;3.10;;;;;;;;;;4311437;33;20246;-55
2021/04/11 15:03:54;;;;;;;6.60;3.40;;;;;;;;;;4305794;33;20682;-55
2021/04/11 15:06:34;;;;;;;5.22;3.58;;;;;;;;;;4309566;33;20231;-54
2021/04/11 15:09:22;;;;;;;8.60;3.05;;;;;;;;;;4302970;33;20208;-55
2021/04/11 15:12:00;;;;;;;5.65;2.80;;;;;;;;;;4306164;33;20329;-58
2021/04/11 15:14:42;;;;;;;9.57;4.28;;;;;;;;;;4313101;33;20234;-58
2021/04/11 15:17:23;;;;;;;10.00;4.10;;;;;;;;;;4313485;33;20257;-57
2021/04/11 15:19:58;;;;;;;20.02;4.22;;;;;;;;;;4312053;33;20219;-58
2021/04/11 15:22:29;;;;;;;7.60;3.53;;;;;;;;;;4313179;33;20257;-58
2021/04/11 15:25:06;;;;;;;6.20;3.53;;;;;;;;;;4307408;33;20365;-56
2021/04/11 15:27:55;;;;;;;21.08;3.97;;;;;;;;;;4313536;33;20246;-58
2021/04/11 15:30:22;;;;;;;12.57;3.25;;;;;;;;;;4307644;33;20233;-58
2021/04/11 15:32:56;;;;;;;18.75;4.55;;;;;;;;;;4307741;33;20266;-56